createdAt,value
2022-10-25T00:00:18.900Z,12.13
2022-10-25T00:02:45.555Z,12.09
2022-10-25T00:05:15.479Z,12.21
2022-10-25T00:07:42.175Z,12.33
2022-10-25T00:10:09.648Z,12.16
2022-10-25T00:12:44.654Z,12.26
2022-10-25T00:15:14.222Z,12.12
2022-10-25T00:17:41.979Z,12.31
2022-10-25T00:20:09.762Z,12.18
2022-10-25T00:22:36.633Z,12.34
2022-10-25T00:25:04.299Z,12.41
2022-10-25T00:27:30.991Z,12.48
2022-10-25T00:29:57.564Z,11.91
2022-10-25T00:32:24.312Z,12.47
2022-10-25T00:34:50.817Z,12.37
2022-10-25T00:37:17.587Z,12.10
2022-10-25T00:39:45.776Z,12.27
2022-10-25T00:42:19.209Z,12.13
2022-10-25T00:45:01.688Z,12.06
2022-10-25T00:47:38.202Z,12.11
2022-10-25T00:50:34.323Z,12.35
2022-10-25T00:53:09.708Z,12.36
2022-10-25T00:55:42.050Z,12.13
2022-10-25T00:58:15.344Z,12.37
2022-10-25T01:00:43.512Z,12.27
2022-10-25T01:03:10.236Z,12.28
2022-10-25T01:05:37.904Z,11.97
2022-10-25T01:08:06.005Z,12.15
2022-10-25T01:10:32.804Z,12.35
2022-10-25T01:13:02.317Z,12.23
2022-10-25T01:15:37.886Z,12.24
2022-10-25T01:18:10.749Z,12.43
2022-10-25T01:20:55.845Z,12.19
2022-10-25T01:23:34.290Z,12.48
2022-10-25T01:26:20.040Z,12.49
2022-10-25T01:29:28.490Z,12.39
2022-10-25T01:32:03.771Z,12.56
2022-10-25T01:34:39.332Z,12.31
2022-10-25T01:37:12.031Z,12.51
2022-10-25T01:39:49.188Z,12.43
2022-10-25T01:42:46.177Z,12.30
2022-10-25T01:45:22.101Z,12.49
2022-10-25T01:47:56.206Z,12.50
2022-10-25T01:50:28.935Z,12.50
2022-10-25T01:52:55.812Z,12.45
2022-10-25T01:55:31.437Z,12.32
2022-10-25T01:58:21.082Z,12.54
2022-10-25T02:01:18.303Z,12.55
2022-10-25T02:03:59.582Z,12.51
2022-10-25T02:06:56.406Z,12.45
2022-10-25T02:09:39.501Z,12.29
2022-10-25T02:12:11.381Z,12.48
2022-10-25T02:14:48.767Z,12.46
2022-10-25T02:17:24.489Z,12.51
2022-10-25T02:19:55.088Z,12.49
2022-10-25T02:22:25.863Z,12.51
2022-10-25T02:24:53.506Z,12.42
2022-10-25T02:27:23.252Z,12.50
2022-10-25T02:29:52.093Z,12.36
2022-10-25T02:32:18.622Z,12.24
2022-10-25T02:34:49.229Z,12.50
2022-10-25T02:37:16.364Z,12.34
2022-10-25T02:39:43.949Z,12.22
2022-10-25T02:42:11.191Z,12.45
2022-10-25T02:44:37.616Z,12.26
2022-10-25T02:47:04.232Z,11.91
2022-10-25T02:49:30.944Z,12.07
2022-10-25T02:51:57.988Z,12.14
2022-10-25T02:54:24.588Z,12.41
2022-10-25T02:56:52.615Z,12.39
2022-10-25T02:59:19.951Z,12.27
2022-10-25T03:01:46.633Z,12.28
2022-10-25T03:04:13.673Z,12.20
2022-10-25T03:06:40.617Z,12.49
2022-10-25T03:09:07.934Z,12.35
2022-10-25T03:11:34.435Z,12.08
2022-10-25T03:14:00.964Z,12.49
2022-10-25T03:16:27.630Z,12.21
2022-10-25T03:18:57.946Z,12.54
2022-10-25T03:21:24.804Z,12.46
2022-10-25T03:23:52.015Z,12.04
2022-10-25T03:26:19.652Z,12.49
2022-10-25T03:28:46.505Z,12.39
2022-10-25T03:31:15.414Z,12.46
2022-10-25T03:33:42.116Z,12.18
2022-10-25T03:36:09.259Z,12.48
2022-10-25T03:38:36.012Z,12.45
2022-10-25T03:41:02.978Z,12.32
2022-10-25T03:43:29.756Z,12.32
2022-10-25T03:45:56.601Z,12.25
2022-10-25T03:48:23.475Z,12.52
2022-10-25T03:50:49.978Z,11.98
2022-10-25T03:53:16.551Z,12.29
2022-10-25T03:55:43.029Z,12.10
2022-10-25T03:58:09.817Z,12.21
2022-10-25T04:00:36.367Z,12.14
2022-10-25T04:03:03.165Z,12.38
2022-10-25T04:05:30.984Z,12.38
2022-10-25T04:07:59.534Z,12.43
2022-10-25T04:10:26.721Z,12.36
2022-10-25T04:12:54.735Z,11.67
2022-10-25T04:15:22.781Z,12.52
2022-10-25T04:17:50.793Z,12.02
2022-10-25T04:20:17.887Z,12.30
2022-10-25T04:22:44.523Z,12.44
2022-10-25T04:25:11.259Z,12.41
2022-10-25T04:27:37.694Z,12.38
2022-10-25T04:30:04.365Z,12.46
2022-10-25T04:32:30.821Z,11.99
2022-10-25T04:34:58.393Z,12.39
2022-10-25T04:37:25.334Z,12.41
2022-10-25T04:39:51.921Z,12.15
2022-10-25T04:42:19.707Z,12.06
2022-10-25T04:44:46.661Z,12.20
2022-10-25T04:47:18.180Z,12.39
2022-10-25T04:49:44.638Z,12.16
2022-10-25T04:52:11.454Z,12.42
2022-10-25T04:54:37.885Z,12.30
2022-10-25T04:57:04.409Z,12.31
2022-10-25T04:59:30.850Z,12.06
2022-10-25T05:01:57.344Z,12.33
2022-10-25T05:04:23.866Z,12.09
2022-10-25T05:06:50.440Z,12.30
2022-10-25T05:09:16.896Z,12.35
2022-10-25T05:11:43.494Z,12.51
2022-10-25T05:14:10.002Z,11.64
2022-10-25T05:16:36.667Z,11.98
2022-10-25T05:19:03.494Z,12.45
2022-10-25T05:21:31.224Z,12.46
2022-10-25T05:24:01.883Z,12.54
2022-10-25T05:26:30.361Z,12.69
2022-10-25T05:28:57.229Z,12.88
2022-10-25T05:31:29.638Z,12.99
2022-10-25T05:33:59.347Z,13.18
2022-10-25T05:36:28.312Z,13.10
2022-10-25T05:38:55.979Z,12.92
2022-10-25T05:41:22.576Z,12.88
2022-10-25T05:43:49.232Z,12.46
2022-10-25T05:46:24.236Z,12.62
2022-10-25T05:48:51.446Z,12.65
2022-10-25T05:51:33.013Z,12.62
2022-10-25T05:54:03.089Z,12.48
2022-10-25T05:56:31.181Z,12.23
2022-10-25T05:58:58.052Z,12.41
2022-10-25T06:01:28.979Z,12.52
2022-10-25T06:03:56.114Z,12.43
2022-10-25T06:06:23.528Z,12.53
2022-10-25T06:09:02.694Z,12.45
2022-10-25T06:11:30.107Z,12.43
2022-10-25T06:13:56.642Z,12.26
2022-10-25T06:16:24.948Z,11.87
2022-10-25T06:18:53.160Z,12.32
2022-10-25T06:21:22.802Z,12.40
2022-10-25T06:23:50.220Z,12.33
2022-10-25T06:26:20.698Z,12.34
2022-10-25T06:28:47.893Z,11.92
2022-10-25T06:31:17.360Z,12.21
2022-10-25T06:33:44.657Z,11.96
2022-10-25T06:36:17.019Z,12.27
2022-10-25T06:38:44.411Z,12.35
2022-10-25T06:41:18.296Z,12.14
2022-10-25T06:43:44.924Z,12.08
2022-10-25T06:46:32.975Z,12.29
2022-10-25T06:49:01.574Z,12.09
2022-10-25T06:51:29.133Z,12.30
2022-10-25T06:53:59.354Z,12.15
2022-10-25T06:56:27.272Z,12.35
2022-10-25T06:58:54.849Z,11.94
2022-10-25T07:01:23.591Z,12.43
2022-10-25T07:03:51.280Z,12.43
2022-10-25T07:06:21.521Z,12.46
2022-10-25T07:08:55.935Z,12.31
2022-10-25T07:11:24.329Z,12.55
2022-10-25T07:13:51.054Z,12.45
2022-10-25T07:16:21.251Z,12.57
2022-10-25T07:18:48.578Z,12.43
2022-10-25T07:21:19.007Z,12.55
2022-10-25T07:23:46.088Z,12.50
2022-10-25T07:26:15.879Z,12.57
2022-10-25T07:28:45.038Z,12.60
2022-10-25T07:31:13.310Z,12.60
2022-10-25T07:33:39.924Z,12.39
2022-10-25T07:36:10.947Z,12.40
2022-10-25T07:38:39.194Z,12.40
2022-10-25T07:41:12.608Z,12.51
2022-10-25T07:43:39.134Z,12.74
2022-10-25T07:46:06.639Z,12.80
2022-10-25T07:48:34.041Z,12.38
2022-10-25T07:51:12.149Z,12.65
2022-10-25T07:53:39.043Z,12.86
2022-10-25T07:56:06.353Z,12.38
2022-10-25T07:58:33.760Z,12.81
2022-10-25T08:01:06.310Z,12.81
2022-10-25T08:03:33.811Z,12.74
2022-10-25T08:06:02.533Z,12.94
2022-10-25T08:08:30.496Z,12.95
2022-10-25T08:10:57.893Z,12.43
2022-10-25T08:13:25.076Z,12.80
2022-10-25T08:15:56.397Z,12.94
2022-10-25T08:18:23.962Z,13.02
2022-10-25T08:21:02.247Z,12.88
2022-10-25T08:23:31.475Z,12.76
2022-10-25T08:25:58.398Z,12.90
2022-10-25T08:28:24.991Z,13.13
2022-10-25T08:30:54.479Z,13.20
2022-10-25T08:33:21.193Z,13.16
2022-10-25T08:35:47.903Z,13.19
2022-10-25T08:38:14.530Z,13.20
2022-10-25T08:41:10.349Z,13.44
2022-10-25T08:44:05.562Z,13.55
2022-10-25T08:46:39.322Z,13.48
2022-10-25T08:49:43.375Z,13.76
2022-10-25T08:52:39.889Z,13.77
2022-10-25T08:55:31.698Z,13.91
2022-10-25T08:58:00.493Z,13.85
2022-10-25T09:00:37.551Z,13.75
2022-10-25T09:03:05.140Z,14.21
2022-10-25T09:05:35.453Z,14.37
2022-10-25T09:08:15.151Z,14.61
2022-10-25T09:10:54.430Z,14.84
2022-10-25T09:16:18.952Z,15.72
2022-10-25T09:18:52.410Z,15.94
2022-10-25T09:21:33.108Z,16.08
2022-10-25T09:24:05.624Z,15.95
2022-10-25T09:26:38.252Z,16.40
2022-10-25T09:29:27.910Z,16.40
2022-10-25T09:31:59.506Z,16.39
2022-10-25T09:34:32.919Z,16.30
2022-10-25T09:37:16.583Z,16.59
2022-10-25T09:39:49.219Z,16.32
2022-10-25T09:42:53.977Z,16.17
2022-10-25T09:45:31.327Z,15.43
2022-10-25T09:48:11.174Z,15.57
2022-10-25T09:50:47.855Z,15.74
2022-10-25T09:53:21.687Z,15.63
2022-10-25T09:55:56.637Z,15.36
2022-10-25T09:58:39.732Z,14.98
2022-10-25T10:01:15.768Z,14.99
2022-10-25T10:03:44.527Z,14.65
2022-10-25T10:06:22.943Z,14.74
2022-10-25T10:08:53.777Z,14.71
2022-10-25T10:11:21.098Z,14.80
2022-10-25T10:14:03.921Z,14.82
2022-10-25T10:16:41.699Z,14.62
2022-10-25T10:19:21.508Z,15.25
2022-10-25T10:22:17.073Z,15.45
2022-10-25T10:24:47.427Z,15.50
2022-10-25T10:27:26.146Z,15.72
2022-10-25T10:30:15.311Z,15.66
2022-10-25T10:32:42.347Z,15.58
2022-10-25T10:35:31.065Z,15.19
2022-10-25T10:38:22.909Z,15.89
2022-10-25T10:40:51.937Z,15.53
2022-10-25T10:43:23.290Z,16.11
2022-10-25T10:45:51.470Z,16.34
2022-10-25T10:48:21.385Z,16.31
2022-10-25T10:50:50.341Z,16.82
2022-10-25T10:53:29.611Z,16.72
2022-10-25T10:55:59.110Z,16.88
2022-10-25T10:58:32.725Z,16.89
2022-10-25T11:01:00.904Z,16.86
2022-10-25T11:03:59.021Z,17.03
2022-10-25T11:06:35.698Z,16.91
2022-10-25T11:09:20.418Z,16.70
2022-10-25T11:12:10.978Z,17.08
2022-10-25T11:14:38.066Z,16.55
2022-10-25T11:17:27.644Z,16.67
2022-10-25T11:20:41.826Z,16.80
2022-10-25T11:23:13.221Z,16.61
2022-10-25T11:25:57.833Z,16.55
2022-10-25T11:28:39.665Z,16.38
2022-10-25T11:31:27.404Z,16.41
2022-10-25T11:34:22.770Z,16.33
2022-10-25T11:37:21.357Z,16.16
2022-10-25T11:40:13.386Z,16.40
2022-10-25T11:43:00.502Z,16.36
2022-10-25T11:45:39.573Z,16.01
2022-10-25T11:48:24.233Z,16.08
2022-10-25T11:51:17.477Z,16.25
2022-10-25T11:54:17.057Z,16.23
2022-10-25T11:56:58.624Z,16.26
2022-10-25T11:59:44.047Z,16.13
2022-10-25T12:02:42.789Z,16.12
2022-10-25T12:05:48.102Z,16.11
2022-10-25T12:08:21.658Z,16.09
2022-10-25T12:10:54.373Z,16.12
2022-10-25T12:13:28.430Z,16.31
2022-10-25T12:16:07.040Z,16.43
2022-10-25T12:19:00.755Z,16.53
2022-10-25T12:21:32.332Z,16.59
2022-10-25T12:24:00.602Z,16.58
2022-10-25T12:26:40.788Z,16.41
2022-10-25T12:29:16.367Z,16.55
2022-10-25T12:31:49.435Z,16.33
2022-10-25T12:34:27.439Z,16.48
2022-10-25T12:36:57.375Z,16.61
2022-10-25T12:39:31.448Z,16.45
2022-10-25T12:42:03.814Z,16.58
2022-10-25T12:44:59.606Z,16.55
2022-10-25T12:47:41.079Z,16.58
2022-10-25T12:50:21.219Z,16.69
2022-10-25T12:53:06.146Z,16.65
2022-10-25T12:55:48.633Z,16.32
2022-10-25T12:58:47.564Z,16.62
2022-10-25T13:01:32.395Z,16.64
2022-10-25T13:04:02.701Z,16.72
2022-10-25T13:06:35.360Z,16.63
2022-10-25T13:09:08.318Z,16.71
2022-10-25T13:11:47.016Z,16.57
2022-10-25T13:14:51.968Z,16.75
2022-10-25T13:17:18.546Z,16.75
2022-10-25T13:19:55.326Z,16.74
2022-10-25T13:22:39.251Z,16.54
2022-10-25T13:25:14.030Z,16.68
2022-10-25T13:28:26.439Z,16.64
2022-10-25T13:31:51.120Z,16.71
2022-10-25T13:34:21.740Z,16.72
2022-10-25T13:36:54.174Z,16.69
2022-10-25T13:39:44.673Z,16.75
2022-10-25T13:42:34.353Z,16.74
2022-10-25T13:45:02.178Z,16.71
2022-10-25T13:47:38.685Z,16.80
2022-10-25T13:50:42.185Z,16.81
2022-10-25T13:53:40.335Z,16.87
2022-10-25T13:56:08.139Z,16.84
2022-10-25T13:58:40.668Z,16.84
2022-10-25T14:01:16.447Z,16.79
2022-10-25T14:03:50.045Z,16.84
2022-10-25T14:06:34.793Z,16.83
2022-10-25T14:09:23.369Z,16.84
2022-10-25T14:12:13.800Z,16.75
2022-10-25T14:14:48.398Z,16.80
2022-10-25T14:17:32.358Z,16.68
2022-10-25T14:20:02.574Z,16.79
2022-10-25T14:22:53.146Z,16.60
2022-10-25T14:25:48.763Z,16.79
2022-10-25T14:28:21.435Z,16.64
2022-10-25T14:30:51.554Z,16.78
2022-10-25T14:33:35.460Z,16.60
2022-10-25T14:36:24.963Z,16.70
2022-10-25T14:38:54.644Z,16.81
2022-10-25T14:41:25.413Z,16.82
2022-10-25T14:43:52.272Z,16.52
2022-10-25T14:46:21.546Z,16.78
2022-10-25T14:48:49.598Z,16.67
2022-10-25T14:51:22.079Z,16.67
2022-10-25T14:54:05.183Z,16.63
2022-10-25T14:56:32.186Z,16.64
2022-10-25T14:59:00.988Z,16.61
2022-10-25T15:01:29.334Z,16.51
2022-10-25T15:04:00.073Z,16.52
2022-10-25T15:06:30.462Z,16.10
2022-10-25T15:09:28.981Z,16.11
2022-10-25T15:12:22.833Z,16.35
2022-10-25T15:14:49.510Z,16.28
2022-10-25T15:17:30.279Z,16.34
2022-10-25T15:20:01.352Z,16.31
2022-10-25T15:22:32.393Z,16.16
2022-10-25T15:24:59.141Z,16.07
2022-10-25T15:27:40.283Z,16.15
2022-10-25T15:30:07.562Z,15.94
2022-10-25T15:32:35.899Z,16.09
2022-10-25T15:35:02.771Z,16.06
2022-10-25T15:37:30.263Z,15.80
2022-10-25T15:39:57.508Z,15.92
2022-10-25T15:42:26.044Z,15.84
2022-10-25T15:44:53.413Z,15.74
2022-10-25T15:47:35.561Z,15.35
2022-10-25T15:50:05.302Z,15.59
2022-10-25T15:52:32.053Z,15.39
2022-10-25T15:54:58.845Z,15.06
2022-10-25T15:57:27.356Z,15.13
2022-10-25T15:59:54.074Z,14.91
2022-10-25T16:02:28.740Z,14.65
2022-10-25T16:04:56.513Z,15.03
2022-10-25T16:07:23.181Z,14.89
2022-10-25T16:09:49.804Z,14.61
2022-10-25T16:12:32.068Z,14.73
2022-10-25T16:15:01.073Z,14.45
2022-10-25T16:17:28.393Z,14.19
2022-10-25T16:19:55.221Z,14.39
2022-10-25T16:22:21.869Z,14.30
2022-10-25T16:24:48.672Z,14.22
2022-10-25T16:27:15.327Z,14.08
2022-10-25T16:29:43.898Z,14.01
2022-10-25T16:32:11.847Z,13.93
2022-10-25T16:34:42.338Z,13.91
2022-10-25T16:37:11.923Z,13.82
2022-10-25T16:39:39.060Z,13.83
2022-10-25T16:42:26.446Z,13.83
2022-10-25T16:44:52.984Z,13.80
2022-10-25T16:47:21.447Z,13.47
2022-10-25T16:49:48.225Z,13.64
2022-10-25T16:52:16.018Z,13.56
2022-10-25T16:54:42.650Z,13.39
2022-10-25T16:57:09.873Z,12.89
2022-10-25T16:59:37.921Z,13.08
2022-10-25T17:02:05.123Z,12.78
2022-10-25T17:04:31.737Z,12.97
2022-10-25T17:06:59.212Z,13.09
2022-10-25T17:09:25.894Z,12.97
2022-10-25T17:11:52.657Z,13.11
2022-10-25T17:14:19.317Z,13.02
2022-10-25T17:16:46.224Z,12.98
2022-10-25T17:19:13.453Z,12.64
2022-10-25T17:21:40.506Z,12.92
2022-10-25T17:24:09.683Z,12.37
2022-10-25T17:26:37.223Z,12.37
2022-10-25T17:29:04.570Z,12.18
2022-10-25T17:31:32.661Z,12.10
2022-10-25T17:34:00.945Z,12.38
2022-10-25T17:36:29.431Z,12.08
2022-10-25T17:39:04.584Z,12.43
2022-10-25T17:41:31.355Z,12.27
2022-10-25T17:43:58.289Z,12.23
2022-10-25T17:46:32.356Z,11.61
2022-10-25T17:49:03.586Z,12.14
2022-10-25T17:51:31.847Z,12.33
2022-10-25T17:53:58.339Z,12.36
2022-10-25T17:56:27.207Z,12.36
2022-10-25T17:58:54.496Z,12.12
2022-10-25T18:01:24.270Z,12.02
2022-10-25T18:03:51.350Z,12.12
2022-10-25T18:06:20.348Z,11.84
2022-10-25T18:08:56.909Z,11.88
2022-10-25T18:11:26.540Z,11.96
2022-10-25T18:13:55.601Z,11.86
2022-10-25T18:16:26.321Z,11.91
2022-10-25T18:18:55.185Z,11.85
2022-10-25T18:21:25.021Z,11.74
2022-10-25T18:24:00.463Z,11.70
2022-10-25T18:26:28.363Z,11.74
2022-10-25T18:28:58.221Z,11.76
2022-10-25T18:31:27.289Z,11.09
2022-10-25T18:34:00.215Z,11.43
2022-10-25T18:36:27.590Z,11.54
2022-10-25T18:38:54.849Z,11.50
2022-10-25T18:41:24.028Z,11.46
2022-10-25T18:43:51.096Z,11.31
2022-10-25T18:46:18.456Z,11.20
2022-10-25T18:48:51.457Z,11.29
2022-10-25T18:51:20.950Z,11.34
2022-10-25T18:53:47.600Z,11.31
2022-10-25T18:56:21.109Z,10.82
2022-10-25T18:58:48.882Z,10.94
2022-10-25T19:01:26.127Z,11.37
2022-10-25T19:03:52.805Z,11.02
2022-10-25T19:06:19.714Z,11.30
2022-10-25T19:08:46.444Z,10.89
2022-10-25T19:11:13.741Z,11.14
2022-10-25T19:13:41.102Z,11.08
2022-10-25T19:16:09.954Z,10.92
2022-10-25T19:18:37.476Z,11.09
2022-10-25T19:21:10.222Z,11.10
2022-10-25T19:23:39.260Z,11.01
2022-10-25T19:26:08.204Z,10.83
2022-10-25T19:28:35.041Z,10.52
2022-10-25T19:31:16.119Z,10.61
2022-10-25T19:33:48.115Z,11.03
2022-10-25T19:36:16.243Z,11.01
2022-10-25T19:38:45.478Z,10.19
2022-10-25T19:41:16.372Z,10.75
2022-10-25T19:43:43.131Z,10.66
2022-10-25T19:46:11.020Z,10.62
2022-10-25T19:48:37.976Z,10.16
2022-10-25T19:51:06.490Z,10.69
2022-10-25T19:53:34.551Z,10.12
2022-10-25T19:56:09.739Z,10.72
2022-10-25T19:58:38.610Z,10.66
2022-10-25T20:01:15.679Z,10.68
2022-10-25T20:03:43.450Z,10.77
2022-10-25T20:06:18.749Z,10.81
2022-10-25T20:08:48.854Z,10.66
2022-10-25T20:11:17.287Z,10.52
2022-10-25T20:13:44.620Z,10.62
2022-10-25T20:16:14.090Z,10.46
2022-10-25T20:18:42.309Z,10.67
2022-10-25T20:21:13.411Z,10.72
2022-10-25T20:23:42.919Z,10.78
2022-10-25T20:26:12.072Z,10.40
2022-10-25T20:28:38.576Z,10.58
2022-10-25T20:31:05.313Z,10.56
2022-10-25T20:33:31.878Z,10.75
2022-10-25T20:36:04.657Z,9.96
2022-10-25T20:38:31.870Z,10.66
2022-10-25T20:41:20.514Z,10.38
2022-10-25T20:43:49.481Z,10.61
2022-10-25T20:46:18.588Z,10.48
2022-10-25T20:48:51.194Z,10.42
2022-10-25T20:51:19.119Z,10.53
2022-10-25T20:53:46.462Z,10.62
2022-10-25T20:56:15.574Z,10.55
2022-10-25T20:58:43.129Z,10.50
2022-10-25T21:01:10.164Z,10.13
2022-10-25T21:03:37.292Z,10.52
2022-10-25T21:06:06.385Z,10.55
2022-10-25T21:08:34.128Z,10.30
2022-10-25T21:11:02.910Z,10.35
2022-10-25T21:13:31.859Z,10.55
2022-10-25T21:15:59.057Z,10.56
2022-10-25T21:18:28.963Z,10.15
2022-10-25T21:21:00.519Z,10.22
2022-10-25T21:23:28.460Z,10.26
2022-10-25T21:26:09.066Z,10.57
2022-10-25T21:28:38.663Z,10.04
2022-10-25T21:31:08.782Z,10.48
2022-10-25T21:33:35.950Z,10.38
2022-10-25T21:36:07.992Z,10.64
2022-10-25T21:38:34.887Z,10.40
2022-10-25T21:41:10.087Z,10.71
2022-10-25T21:43:37.586Z,10.15
2022-10-25T21:46:05.655Z,10.45
2022-10-25T21:48:32.542Z,10.25
2022-10-25T21:50:59.825Z,10.30
2022-10-25T21:53:26.396Z,10.53
2022-10-25T21:56:06.551Z,10.59
2022-10-25T21:58:33.289Z,10.60
2022-10-25T22:00:59.978Z,10.61
2022-10-25T22:03:31.232Z,10.62
2022-10-25T22:05:59.108Z,10.66
2022-10-25T22:08:25.638Z,10.48
2022-10-25T22:11:02.757Z,10.58
2022-10-25T22:13:29.562Z,10.34
2022-10-25T22:15:57.860Z,10.45
2022-10-25T22:18:25.198Z,10.60
2022-10-25T22:21:18.471Z,10.53
2022-10-25T22:23:45.113Z,10.39
2022-10-25T22:26:14.248Z,10.63
2022-10-25T22:28:42.020Z,10.30
2022-10-25T22:31:16.443Z,10.57
2022-10-25T22:33:44.443Z,10.45
2022-10-25T22:36:15.010Z,10.27
2022-10-25T22:38:43.153Z,10.47
2022-10-25T22:41:12.170Z,10.59
2022-10-25T22:43:40.164Z,10.42
2022-10-25T22:46:12.924Z,10.61
2022-10-25T22:48:43.172Z,10.02
2022-10-25T22:51:11.437Z,10.28
2022-10-25T22:53:39.635Z,10.26
2022-10-25T22:56:07.501Z,10.46
2022-10-25T22:58:35.540Z,10.64
2022-10-25T23:01:13.761Z,10.81
2022-10-25T23:03:43.140Z,10.88
2022-10-25T23:06:15.650Z,11.02
2022-10-25T23:08:43.276Z,10.76
2022-10-25T23:11:22.005Z,10.80
2022-10-25T23:13:49.310Z,11.05
2022-10-25T23:16:17.063Z,11.06
2022-10-25T23:18:44.523Z,11.00
2022-10-25T23:21:30.878Z,11.10
2022-10-25T23:23:59.781Z,10.87
2022-10-25T23:26:37.715Z,11.10
2022-10-25T23:29:05.947Z,11.08
2022-10-25T23:31:33.121Z,10.70
2022-10-25T23:34:00.639Z,10.90
2022-10-25T23:36:43.083Z,10.94
2022-10-25T23:39:09.713Z,10.83
2022-10-25T23:41:36.573Z,10.83
2022-10-25T23:44:03.722Z,10.58
2022-10-25T23:46:30.228Z,10.59
2022-10-25T23:48:57.644Z,10.80
2022-10-25T23:51:24.645Z,10.87
2022-10-25T23:53:52.197Z,10.93
2022-10-25T23:56:19.329Z,10.90
2022-10-25T23:58:50.376Z,10.74
